Latest Weather Observations for Wudinna Airport

IDS60801

Issued at 2:01 pm CST Wednesday 29 July 2015 (issued every 30 minutes, with the page automatically refreshed every 10 minutes)

About weather observations | Map of weather stations | Latest weather observations for SA | Other Formats
Station Details ID: 018083 Name: WUDINNA AERO Lat: -33.04 Lon: 135.45 Height: 86.4 m
Data from the previous 72 hours. | See also: Recent months at Wudinna Airport
Date/Time
CST
Temp
°C
App
Temp
°C
Dew
Point
Rel
Hum
%
Delta-T
°C
Wind Press
QNH
hPa
Press
MSL
hPa
Rain
since 9 am
mm
Dir
 
Spd
km/h
Gust
km/h
Spd
kts
Gust
kts
29/02:00pm 15.7 9.1 -0.5 33 6.8 N 24 39 13 21 1024.5 - 0.0
29/01:30pm 15.3 7.6 -0.4 34 6.6 N 30 41 16 22 1025.1 - 0.0
29/01:00pm 15.5 8.1 1.6 39 6.1 NNW 30 41 16 22 1026.0 - 0.0
29/12:30pm 13.5 6.5 2.1 46 5.0 N 28 37 15 20 1027.0 - 0.0
29/12:00pm 13.1 5.7 1.8 46 4.9 N 30 44 16 24 1027.5 1027.7 0.0
29/11:30am 12.9 6.4 2.5 49 4.5 N 26 41 14 22 1028.4 - 0.0
29/11:00am 11.7 7.0 3.0 55 3.8 N 17 28 9 15 1028.8 - 0.0
29/10:30am 11.1 6.7 2.9 57 3.6 N 15 22 8 12 1029.1 - 0.0
29/10:00am 10.6 7.8 2.9 59 3.3 NNW 7 11 4 6 1029.8 - 0.0
29/09:30am 10.0 6.8 3.1 62 3.0 W 9 13 5 7 1029.5 - 0.0
29/09:00am 9.8 5.6 1.7 57 3.4 N 13 22 7 12 1028.9 1029.1 0.2
29/08:30am 9.9 4.9 1.3 55 3.6 NNW 17 24 9 13 1029.0 - 0.2
29/08:00am 9.7 4.3 1.4 56 3.5 N 19 28 10 15 1028.9 - 0.2
29/07:30am 8.8 5.8 1.7 61 2.9 E 7 13 4 7 1028.8 - 0.2
29/07:00am 9.3 3.9 1.5 58 3.2 N 19 26 10 14 1028.8 - 0.2
29/06:30am 8.6 3.3 1.7 62 2.9 NNE 19 24 10 13 1028.2 - 0.2
29/06:00am 5.3 2.6 2.7 83 1.1 SW 6 9 3 5 1029.0 1029.2 0.2
29/05:30am 5.7 4.1 2.7 81 1.2 CALM 0 2 0 1 1029.0 - 0.2
29/05:00am 6.8 3.4 2.1 72 1.9 ENE 9 15 5 8 1028.6 - 0.2
29/04:30am 6.3 3.9 2.2 75 1.7 ESE 4 9 2 5 1029.3 - 0.2
29/04:00am 7.6 4.7 2.5 70 2.1 NNE 7 11 4 6 1029.2 - 0.2
29/03:30am 6.1 2.8 2.6 78 1.4 NE 9 11 5 6 1029.3 - 0.2
29/03:00am 5.6 2.6 1.7 76 1.6 NE 7 13 4 7 1030.2 1030.4 0.2
29/02:30am 4.8 1.8 2.0 82 1.1 SSE 7 9 4 5 1030.4 - 0.2
29/02:00am 6.6 3.3 2.3 74 1.8 N 9 13 5 7 1030.3 - 0.2
29/01:30am 7.2 3.1 2.3 71 2.0 NNE 13 17 7 9 1030.0 - 0.2
29/01:00am 7.7 3.3 2.6 70 2.1 NNE 15 19 8 10 1030.3 - 0.2
29/12:30am 7.9 3.9 2.8 70 2.2 NNE 13 19 7 10 1030.7 - 0.2
29/12:00am 7.8 3.5 3.3 73 1.9 NNE 15 19 8 10 1031.1 1031.3 0.2
 
Date/Time
CST
Temp
°C
App
Temp
°C
Dew
Point
Rel
Hum
%
Delta-T
°C
Wind Press
QNH
hPa
Press
MSL
hPa
Rain
since 9 am
mm
Dir
 
Spd
km/h
Gust
km/h
Spd
kts
Gust
kts
28/11:30pm 6.4 2.4 2.9 78 1.5 NNE 13 17 7 9 1031.2 - 0.2
28/11:00pm 6.5 2.1 2.8 77 1.5 NNE 15 17 8 9 1031.4 - 0.2
28/10:30pm 7.0 3.1 3.3 77 1.6 NNE 13 17 7 9 1031.7 - 0.2
28/10:00pm 7.2 2.9 3.3 76 1.7 NE 15 17 8 9 1032.1 - 0.2
28/09:30pm 8.9 5.3 2.7 65 2.6 NNE 11 15 6 8 1032.9 - 0.2
28/09:00pm 9.0 4.7 3.0 66 2.5 NNE 15 17 8 9 1032.8 1032.9 0.2
28/08:30pm 7.7 3.9 3.9 77 1.6 NNE 13 17 7 9 1032.6 - 0.2
28/08:00pm 7.3 4.3 4.1 80 1.4 NNE 9 13 5 7 1033.2 - 0.2
28/07:30pm 6.9 3.5 4.2 83 1.2 NE 11 13 6 7 1032.9 - 0.2
28/07:00pm 7.4 4.0 4.0 79 1.5 NE 11 13 6 7 1032.6 - 0.2
28/06:30pm 7.4 4.9 4.9 84 1.1 NE 7 9 4 5 1032.5 - 0.2
28/06:00pm 10.2 9.1 5.0 70 2.3 CALM 0 0 0 0 1032.7 1032.8 0.2
28/05:30pm 12.6 10.2 4.1 56 3.9 E 6 7 3 4 1032.5 - 0.2
28/05:00pm 14.4 12.5 2.9 46 5.2 ENE 2 6 1 3 1032.6 - 0.2
28/04:30pm 14.3 12.9 3.7 49 4.8 CALM 0 0 0 0 1032.8 - 0.2
28/04:00pm 15.0 12.8 3.2 45 5.4 NW 4 9 2 5 1033.2 - 0.2
28/03:30pm 14.7 12.0 2.9 45 5.3 E 6 11 3 6 1033.6 - 0.2
28/03:00pm 15.4 13.6 5.3 51 4.8 ENE 4 9 2 5 1033.5 1033.6 0.2
28/02:30pm 14.4 11.4 4.1 50 4.7 N 9 17 5 9 1033.5 - 0.2
28/02:00pm 14.0 10.9 3.8 50 4.7 N 9 17 5 9 1034.0 - 0.2
28/01:30pm 13.9 10.5 3.9 51 4.6 NNE 11 17 6 9 1034.7 - 0.2
28/01:00pm 13.6 10.2 4.2 53 4.3 NNE 11 17 6 9 1035.4 - 0.0
28/12:30pm 13.6 10.0 5.0 56 4.0 NE 13 19 7 10 1036.1 - 0.0
28/12:00pm 13.1 9.4 4.3 55 4.0 N 13 19 7 10 1036.7 1036.9 0.0
28/11:30am 12.7 8.7 4.9 59 3.6 N 15 22 8 12 1037.1 - 0.0
28/11:00am 12.2 7.6 3.9 57 3.7 NNE 17 20 9 11 1037.4 - 0.0
28/10:30am 11.3 6.8 4.3 62 3.2 NNE 17 22 9 12 1037.6 - 0.0
28/10:00am 10.9 6.9 5.0 67 2.7 NNE 15 20 8 11 1037.7 - 0.0
28/09:30am 10.1 7.2 6.4 78 1.7 NE 11 13 6 7 1037.5 - 0.0
28/09:00am 8.4 5.8 5.9 84 1.1 NE 9 13 5 7 1037.2 1037.4 0.0
28/08:30am 6.5 3.7 5.1 91 0.6 NE 9 13 5 7 1037.4 - 0.0
28/08:00am 3.7 -0.3 2.8 94 0.4 NE 13 15 7 8 1037.3 - 0.0
28/07:30am 2.4 -1.8 1.4 93 0.4 NE 13 15 7 8 1037.4 - 0.0
28/07:00am 2.2 -1.7 1.3 94 0.3 NE 11 11 6 6 1037.8 - 0.0
28/06:30am 2.1 -1.8 1.2 94 0.3 NE 11 13 6 7 1037.7 - 0.0
28/06:00am 1.9 -0.7 1.0 94 0.3 NNE 4 7 2 4 1037.7 1037.9 0.0
28/05:30am 2.2 -1.7 1.2 93 0.4 NE 11 13 6 7 1037.3 - 0.0
28/05:00am 2.7 -0.7 1.7 93 0.4 NNE 9 11 5 6 1037.1 - 0.0
28/04:30am 3.3 -0.1 2.0 91 0.5 NNE 9 13 5 7 1036.8 - 0.0
28/04:00am 3.7 -0.4 2.4 91 0.5 NNE 13 13 7 7 1036.3 - 0.0
28/03:30am 4.2 0.9 2.6 89 0.6 NE 9 9 5 5 1036.4 - 0.0
28/03:00am 5.9 2.9 4.1 88 0.8 NNE 9 13 5 7 1036.1 1036.3 0.0
28/02:30am 7.4 5.1 5.7 89 0.8 NE 7 11 4 6 1036.3 - 0.0
28/02:00am 7.7 5.1 6.0 89 0.8 NE 9 11 5 6 1036.6 - 0.0
28/01:30am 7.4 5.2 6.0 91 0.6 NE 7 9 4 5 1036.7 - 0.0
28/01:00am 7.3 5.1 6.1 92 0.5 NE 7 9 4 5 1036.7 - 0.0
28/12:30am 5.7 4.5 4.7 93 0.4 CALM 0 0 0 0 1036.7 - 0.0
28/12:00am 5.6 3.6 4.6 93 0.4 N 4 7 2 4 1037.0 1037.2 0.0
 
Date/Time
CST
Temp
°C
App
Temp
°C
Dew
Point
Rel
Hum
%
Delta-T
°C
Wind Press
QNH
hPa
Press
MSL
hPa
Rain
since 9 am
mm
Dir
 
Spd
km/h
Gust
km/h
Spd
kts
Gust
kts
27/11:30pm 6.0 4.7 4.3 89 0.7 CALM 0 0 0 0 1037.1 - 0.0
27/11:00pm 7.5 6.1 5.5 87 0.9 E 2 6 1 3 1037.0 - 0.0
27/10:30pm 7.7 5.4 5.7 87 0.9 NNE 7 9 4 5 1037.0 - 0.0
27/10:00pm 8.7 6.4 5.6 81 1.4 NE 7 9 4 5 1036.9 - 0.0
27/09:30pm 10.6 7.3 4.3 65 2.8 ESE 11 15 6 8 1036.9 - 0.0
27/09:00pm 10.1 6.9 5.3 72 2.2 E 11 15 6 8 1036.7 1036.9 0.0
27/08:30pm 9.2 5.8 5.9 80 1.5 ESE 13 17 7 9 1036.7 - 0.0
27/08:00pm 8.8 5.9 6.4 85 1.1 ESE 11 15 6 8 1036.5 - 0.0
27/07:30pm 8.8 7.2 6.4 85 1.1 E 4 9 2 5 1036.4 - 0.0
27/07:00pm 9.6 7.6 7.0 84 1.2 NE 7 9 4 5 1036.1 - 0.0
27/06:30pm 9.9 7.9 7.0 82 1.4 N 7 7 4 4 1036.1 - 0.0
27/06:00pm 10.2 7.5 7.4 83 1.3 WSW 11 13 6 7 1036.2 1036.4 0.0
27/05:30pm 11.4 8.9 6.7 73 2.2 SSE 9 19 5 10 1035.8 - 0.0
27/05:00pm 12.7 11.5 6.3 65 3.1 SE 2 7 1 4 1035.5 - 0.0
27/04:30pm 13.0 11.2 7.0 67 2.9 S 6 9 3 5 1035.5 - 0.0
27/04:00pm 12.0 9.7 7.3 73 2.3 S 9 13 5 7 1035.4 - 0.0
27/03:30pm 12.2 8.4 6.0 66 2.9 SW 15 19 8 10 1035.4 - 0.0
27/03:00pm 13.2 10.9 5.9 61 3.4 SSW 7 13 4 7 1035.3 1035.5 0.0
27/02:30pm 12.8 10.0 5.2 60 3.5 WSW 9 17 5 9 1035.1 - 0.0
27/02:00pm 13.0 11.0 6.4 64 3.2 SW 6 9 3 5 1035.2 - 0.0
27/01:30pm 12.1 9.4 5.7 65 3.0 SW 9 13 5 7 1035.5 - 0.0
27/01:00pm 13.5 11.3 5.4 58 3.8 NNW 6 9 3 5 1035.9 - 0.0
27/12:30pm 11.3 9.1 5.2 66 2.8 SW 6 7 3 4 1036.3 - 0.0
27/12:00pm 12.2 10.8 5.4 63 3.1 NE 2 7 1 4 1036.8 1037.0 0.0
27/11:30am 11.9 9.3 6.0 67 2.8 NNW 9 13 5 7 1037.0 - 0.0
27/11:00am 11.2 8.2 7.5 78 1.8 N 13 17 7 9 1037.2 - 0.0
27/10:30am 10.1 7.1 7.7 85 1.2 NW 13 17 7 9 1037.1 - 0.0
27/10:00am 9.1 6.0 7.2 88 0.9 NNW 13 17 7 9 1037.0 - 0.0
27/09:30am 8.1 4.5 6.7 91 0.6 NNW 15 19 8 10 1036.7 - 0.0
27/09:00am 7.6 5.1 6.7 94 0.4 N 9 13 5 7 1036.3 1036.5 0.2
27/08:30am 4.5 3.2 3.9 96 0.3 CALM 0 0 0 0 1035.9 - 0.2
27/08:00am 2.2 -0.7 1.6 96 0.2 NE 6 9 3 5 1035.8 - 0.2
27/07:30am 1.7 -0.1 1.1 96 0.2 CALM 0 6 0 3 1035.2 - 0.2
27/07:00am 1.6 -2.3 1.0 96 0.2 NE 11 13 6 7 1034.9 - 0.2
27/06:30am 2.1 -1.0 1.5 96 0.2 NE 7 7 4 4 1034.7 - 0.2
27/06:00am 1.8 -1.3 1.2 96 0.2 N 7 9 4 5 1034.2 1034.3 0.2
27/05:30am 2.1 0.3 1.5 96 0.2 CALM 0 6 0 3 1033.7 - 0.2
27/05:00am 2.5 -0.5 1.9 96 0.2 NNW 7 9 4 5 1033.5 - 0.2
27/04:30am 2.1 -1.0 1.5 96 0.2 NNW 7 9 4 5 1033.4 - 0.2
27/04:00am 2.9 0.1 2.3 96 0.2 NNW 6 7 3 4 1033.4 - 0.2
27/03:30am 2.5 -0.5 1.8 95 0.3 NNW 7 9 4 5 1033.3 - 0.2
27/03:00am 3.8 2.3 3.1 95 0.3 CALM 0 0 0 0 1033.4 1033.5 0.2
27/02:30am 4.2 1.6 3.2 93 0.4 NNW 6 9 3 5 1033.3 - 0.2
27/02:00am 5.3 3.7 4.3 93 0.4 NNW 2 6 1 3 1033.3 - 0.2
27/01:30am 5.6 4.4 4.7 94 0.4 CALM 0 7 0 4 1033.1 - 0.2
27/01:00am 5.6 2.7 4.6 93 0.4 NW 9 9 5 5 1032.9 - 0.2
27/12:30am 6.6 3.9 5.6 93 0.4 NW 9 11 5 6 1032.6 - 0.2
27/12:00am 6.4 3.7 5.5 94 0.4 NNW 9 11 5 6 1032.6 1032.7 0.2
 
Date/Time
CST
Temp
°C
App
Temp
°C
Dew
Point
Rel
Hum
%
Delta-T
°C
Wind Press
QNH
hPa
Press
MSL
hPa
Rain
since 9 am
mm
Dir
 
Spd
km/h
Gust
km/h
Spd
kts
Gust
kts
26/11:30pm 5.4 3.5 4.7 95 0.3 N 4 7 2 4 1032.5 - 0.2
26/11:00pm 4.9 2.3 4.2 95 0.3 NNE 7 9 4 5 1032.4 - 0.2
26/10:30pm 4.2 1.4 3.3 94 0.4 ENE 7 7 4 4 1032.2 - 0.2
26/10:00pm 4.1 1.5 3.2 94 0.4 NW 6 7 3 4 1032.0 - 0.2
26/09:30pm 4.5 2.3 3.6 94 0.4 NW 4 6 2 3 1031.6 - 0.2
26/09:00pm 4.3 2.9 3.3 93 0.4 CALM 0 0 0 0 1031.4 1031.6 0.2
26/08:30pm 4.4 1.6 3.2 92 0.5 NW 7 7 4 4 1031.1 - 0.2
26/08:00pm 5.2 2.5 3.9 91 0.5 ESE 7 9 4 5 1030.8 - 0.2
26/07:30pm 5.9 4.6 4.2 89 0.7 CALM 0 0 0 0 1030.6 - 0.2
26/07:00pm 6.6 4.0 4.4 86 1.0 WSW 7 11 4 6 1030.2 - 0.2
26/06:30pm 8.0 5.3 5.6 85 1.1 SW 9 11 5 6 1029.6 - 0.2
26/06:00pm 8.7 6.5 6.3 85 1.1 SSW 7 9 4 5 1029.1 1029.3 0.2
26/05:30pm 10.2 7.9 7.3 82 1.4 SSW 9 13 5 7 1028.7 - 0.2
26/05:00pm 10.3 6.5 7.5 83 1.3 S 17 35 9 19 1028.4 - 0.2
26/04:30pm 12.2 7.4 5.8 65 3.0 SW 20 24 11 13 1027.9 - 0.0
26/04:00pm 11.4 6.9 6.3 71 2.4 S 19 22 10 12 1027.7 - 0.0
26/03:30pm 12.8 8.8 8.3 74 2.2 SSW 19 30 10 16 1027.6 - 0.0
26/03:00pm 12.7 9.2 7.4 70 2.6 SW 15 19 8 10 1027.4 1027.6 0.0
26/02:30pm 10.2 3.2 6.7 79 1.7 SSW 33 43 18 23 1027.4 - 0.0

Other Formats:

Comma delimited format used in spreadsheet applications
http://www.bom.gov.au/fwo/IDS60801/IDS60801.95654.axf

JavaScript Object Notation format (JSON) in row-major order
http://www.bom.gov.au/fwo/IDS60801/IDS60801.95654.json